Time;durP1;ratioP1;P1;durP2;ratioP2;P2;SDS_P1;SDS_P2;PMS_P1;PMS_P2;Temp;Humidity;BMP_temperature;BMP_pressure;BME280_temperature;BME280_humidity;BME280_pressure;Samples;Min_cycle;Max_cycle;Signal;HPM_P1;HPM_P2
2023/09/09 00:02:14;;;;;;;7.53;5.50;;;;;;;;;;10277612;28;20487;-85
2023/09/09 00:07:16;;;;;;;6.38;5.65;;;;;;;;;;10254517;28;20478;-84
2023/09/09 00:12:20;;;;;;;7.85;5.68;;;;;;;;;;10263825;28;20430;-84
2023/09/09 00:17:22;;;;;;;6.60;5.22;;;;;;;;;;10257336;28;20471;-85
2023/09/09 00:22:25;;;;;;;7.30;5.50;;;;;;;;;;10275208;28;20460;-85
2023/09/09 00:27:28;;;;;;;9.07;5.80;;;;;;;;;;10262829;28;20471;-85
2023/09/09 00:32:31;;;;;;;7.60;5.47;;;;;;;;;;10256383;28;20463;-85
2023/09/09 00:37:33;;;;;;;7.72;5.22;;;;;;;;;;10268037;28;20412;-85
2023/09/09 00:42:37;;;;;;;6.53;5.00;;;;;;;;;;10259763;28;20503;-85
2023/09/09 00:47:40;;;;;;;5.78;5.00;;;;;;;;;;10258445;28;20407;-85
2023/09/09 00:52:43;;;;;;;6.22;4.93;;;;;;;;;;10260908;28;20513;-85
2023/09/09 00:57:47;;;;;;;7.53;5.20;;;;;;;;;;10260501;28;20475;-85
2023/09/09 01:02:49;;;;;;;7.55;5.03;;;;;;;;;;10255824;28;20416;-84
2023/09/09 01:07:51;;;;;;;5.83;4.90;;;;;;;;;;10257119;28;20912;-85
2023/09/09 01:12:55;;;;;;;7.00;4.50;;;;;;;;;;10257597;28;20467;-85
2023/09/09 01:17:58;;;;;;;5.80;4.83;;;;;;;;;;10264184;28;20424;-85
2023/09/09 01:23:02;;;;;;;6.00;4.47;;;;;;;;;;10258630;28;20541;-85
2023/09/09 01:28:05;;;;;;;6.50;4.60;;;;;;;;;;10270255;28;20493;-85
2023/09/09 01:33:07;;;;;;;7.27;4.73;;;;;;;;;;10264560;28;20470;-85
2023/09/09 01:38:11;;;;;;;7.47;4.90;;;;;;;;;;10265228;28;20424;-84
2023/09/09 01:43:13;;;;;;;6.17;4.70;;;;;;;;;;10265296;28;20458;-84
2023/09/09 01:48:15;;;;;;;6.60;5.32;;;;;;;;;;10260492;28;20408;-85
2023/09/09 01:53:19;;;;;;;6.65;5.10;;;;;;;;;;10263561;28;20519;-85
2023/09/09 01:58:22;;;;;;;7.53;5.95;;;;;;;;;;10262175;28;20424;-85
2023/09/09 02:03:25;;;;;;;8.23;5.50;;;;;;;;;;10262561;28;20414;-85
2023/09/09 02:08:28;;;;;;;7.60;5.45;;;;;;;;;;10263624;28;20417;-85
2023/09/09 02:13:31;;;;;;;7.37;5.30;;;;;;;;;;10264223;28;20446;-85
2023/09/09 02:18:33;;;;;;;7.00;5.28;;;;;;;;;;10261991;28;20519;-85
2023/09/09 02:23:40;;;;;;;6.57;5.37;;;;;;;;;;10255896;28;20505;-85
2023/09/09 02:28:42;;;;;;;5.70;4.88;;;;;;;;;;10263748;28;20416;-85
2023/09/09 02:33:44;;;;;;;7.28;5.40;;;;;;;;;;10263548;28;20971;-84
2023/09/09 02:38:48;;;;;;;6.28;5.53;;;;;;;;;;10263310;28;20478;-85
2023/09/09 02:43:50;;;;;;;7.03;5.60;;;;;;;;;;10261185;28;20480;-85
2023/09/09 02:48:53;;;;;;;7.13;6.05;;;;;;;;;;10260249;28;20443;-85
2023/09/09 02:53:56;;;;;;;7.47;6.10;;;;;;;;;;10260510;28;20512;-84
2023/09/09 02:58:59;;;;;;;7.97;6.18;;;;;;;;;;10259297;28;20414;-85
2023/09/09 03:04:01;;;;;;;7.23;5.80;;;;;;;;;;10258584;28;20454;-85
2023/09/09 03:09:05;;;;;;;8.18;5.90;;;;;;;;;;10255173;28;20423;-85
2023/09/09 03:14:08;;;;;;;7.47;5.53;;;;;;;;;;10255818;28;20448;-85
2023/09/09 03:19:10;;;;;;;8.05;5.75;;;;;;;;;;10257214;28;20486;-84
2023/09/09 03:24:14;;;;;;;10.43;5.80;;;;;;;;;;10257671;28;20451;-85
2023/09/09 03:29:16;;;;;;;7.72;5.85;;;;;;;;;;10261286;28;20470;-85
2023/09/09 03:34:19;;;;;;;8.20;6.47;;;;;;;;;;10260079;28;20406;-85
2023/09/09 03:39:23;;;;;;;7.18;5.93;;;;;;;;;;10257532;28;20420;-84
2023/09/09 03:44:25;;;;;;;6.30;5.63;;;;;;;;;;10260317;28;20478;-85
2023/09/09 03:49:27;;;;;;;11.23;6.60;;;;;;;;;;10260767;28;20487;-85
2023/09/09 03:54:31;;;;;;;9.32;6.38;;;;;;;;;;10259118;28;20416;-85
2023/09/09 03:59:33;;;;;;;9.27;5.85;;;;;;;;;;10260021;28;20451;-85
2023/09/09 04:04:36;;;;;;;10.33;5.83;;;;;;;;;;10257678;28;20424;-85
2023/09/09 04:09:40;;;;;;;11.50;6.40;;;;;;;;;;10259110;28;20422;-85
2023/09/09 04:14:43;;;;;;;10.35;5.95;;;;;;;;;;10257711;28;20438;-85
2023/09/09 04:19:45;;;;;;;7.80;6.18;;;;;;;;;;10258208;28;20400;-85
2023/09/09 04:24:49;;;;;;;7.93;5.97;;;;;;;;;;10249029;28;20445;-85
2023/09/09 04:29:51;;;;;;;8.83;6.03;;;;;;;;;;10265352;28;20470;-84
2023/09/09 04:34:54;;;;;;;9.32;6.50;;;;;;;;;;10259208;28;20444;-85
2023/09/09 04:39:57;;;;;;;8.17;5.93;;;;;;;;;;10262266;28;20501;-84
2023/09/09 04:45:00;;;;;;;7.20;5.65;;;;;;;;;;10255207;28;20474;-85
2023/09/09 04:50:03;;;;;;;7.68;5.80;;;;;;;;;;10258763;28;20467;-84
2023/09/09 04:55:07;;;;;;;8.07;5.60;;;;;;;;;;10264956;28;20473;-85
2023/09/09 05:00:10;;;;;;;6.80;5.38;;;;;;;;;;10266938;28;20418;-85
2023/09/09 05:05:12;;;;;;;6.00;5.33;;;;;;;;;;10264663;28;20420;-85
2023/09/09 05:10:18;;;;;;;7.57;5.68;;;;;;;;;;10267043;28;20470;-84
2023/09/09 05:15:20;;;;;;;6.75;5.32;;;;;;;;;;10264021;28;20442;-85
2023/09/09 05:20:23;;;;;;;7.28;5.57;;;;;;;;;;10259009;28;20499;-84
2023/09/09 05:25:26;;;;;;;6.82;5.00;;;;;;;;;;10262946;28;20463;-84
2023/09/09 05:30:29;;;;;;;7.53;5.53;;;;;;;;;;10272310;28;20524;-84
2023/09/09 05:35:31;;;;;;;6.63;5.00;;;;;;;;;;10262052;28;20557;-84
2023/09/09 05:40:35;;;;;;;7.00;5.00;;;;;;;;;;10264532;28;20420;-84
2023/09/09 05:45:37;;;;;;;6.20;5.33;;;;;;;;;;10261956;28;20471;-85
2023/09/09 05:50:39;;;;;;;7.32;4.85;;;;;;;;;;10259908;28;20481;-85
2023/09/09 05:55:43;;;;;;;7.50;5.13;;;;;;;;;;10257504;28;20485;-85
2023/09/09 06:00:45;;;;;;;8.82;5.38;;;;;;;;;;10256350;28;20424;-85
2023/09/09 06:05:48;;;;;;;6.40;5.13;;;;;;;;;;10258873;28;20495;-85
2023/09/09 06:10:52;;;;;;;5.60;5.03;;;;;;;;;;10256200;28;20495;-84
2023/09/09 06:15:54;;;;;;;7.28;5.40;;;;;;;;;;10260860;28;20456;-84
2023/09/09 06:20:57;;;;;;;7.53;5.30;;;;;;;;;;10258419;28;20481;-85
2023/09/09 06:26:01;;;;;;;6.53;5.17;;;;;;;;;;10255197;28;20404;-85
2023/09/09 06:31:03;;;;;;;8.93;6.30;;;;;;;;;;10268065;28;20466;-85
2023/09/09 06:36:06;;;;;;;6.25;5.07;;;;;;;;;;10261823;28;20456;-84
2023/09/09 06:41:09;;;;;;;6.82;5.40;;;;;;;;;;10258419;28;20506;-85
2023/09/09 06:46:12;;;;;;;7.80;5.32;;;;;;;;;;10260308;28;20499;-84
2023/09/09 06:51:15;;;;;;;8.00;5.50;;;;;;;;;;10258922;28;20463;-85
2023/09/09 06:56:19;;;;;;;7.45;5.53;;;;;;;;;;10260978;28;20424;-84
2023/09/09 07:01:21;;;;;;;7.28;5.20;;;;;;;;;;10261746;28;20473;-84
2023/09/09 07:06:24;;;;;;;6.18;5.15;;;;;;;;;;10259028;28;20408;-85
2023/09/09 07:11:28;;;;;;;6.53;5.50;;;;;;;;;;10256449;28;20498;-84
2023/09/09 07:16:31;;;;;;;7.45;5.15;;;;;;;;;;10260211;28;20587;-85
2023/09/09 07:21:33;;;;;;;6.63;5.13;;;;;;;;;;10255342;28;20481;-85
2023/09/09 07:26:36;;;;;;;6.53;4.97;;;;;;;;;;10255773;28;20467;-85
2023/09/09 07:31:39;;;;;;;7.65;4.93;;;;;;;;;;10263863;28;20468;-84
2023/09/09 07:36:41;;;;;;;8.45;5.13;;;;;;;;;;10261531;28;20416;-85
2023/09/09 07:41:45;;;;;;;6.22;5.10;;;;;;;;;;10257826;28;20478;-85
2023/09/09 07:46:47;;;;;;;5.97;4.87;;;;;;;;;;10257195;28;20412;-85
2023/09/09 07:51:50;;;;;;;6.45;4.60;;;;;;;;;;10258633;28;20518;-85
2023/09/09 07:56:54;;;;;;;7.47;5.15;;;;;;;;;;10261917;28;20481;-85
2023/09/09 08:01:57;;;;;;;4.97;4.20;;;;;;;;;;10281794;28;20484;-83
2023/09/09 08:07:00;;;;;;;6.82;4.60;;;;;;;;;;10304034;28;20506;-84
2023/09/09 08:12:04;;;;;;;7.13;5.10;;;;;;;;;;10294716;28;20925;-84
2023/09/09 08:17:07;;;;;;;4.60;4.10;;;;;;;;;;10299694;28;20528;-84
2023/09/09 08:22:09;;;;;;;6.33;4.30;;;;;;;;;;10298557;28;20445;-84
2023/09/09 08:27:13;;;;;;;6.07;3.92;;;;;;;;;;10298746;28;20914;-85
2023/09/09 08:32:15;;;;;;;5.50;3.80;;;;;;;;;;10297222;28;20461;-83
2023/09/09 08:37:18;;;;;;;5.15;3.70;;;;;;;;;;10304725;28;20530;-84
2023/09/09 08:42:32;;;;;;;5.25;3.78;;;;;;;;;;10287952;28;20477;-85
2023/09/09 08:47:37;;;;;;;4.30;3.90;;;;;;;;;;10293302;28;20438;-84
2023/09/09 08:52:41;;;;;;;4.30;3.90;;;;;;;;;;10294300;28;20528;-84
2023/09/09 08:57:45;;;;;;;4.00;3.53;;;;;;;;;;10304195;28;20448;-84
2023/09/09 09:02:49;;;;;;;6.63;3.50;;;;;;;;;;10304780;28;20458;-84
2023/09/09 09:07:51;;;;;;;4.43;3.57;;;;;;;;;;10302864;28;20471;-85
2023/09/09 09:12:55;;;;;;;4.05;3.55;;;;;;;;;;10298683;28;20510;-85
2023/09/09 09:17:59;;;;;;;4.35;3.47;;;;;;;;;;10294973;28;20923;-84
2023/09/09 09:23:03;;;;;;;4.47;3.80;;;;;;;;;;10289775;28;20436;-84
2023/09/09 09:28:07;;;;;;;5.80;4.25;;;;;;;;;;10309382;28;20432;-85
2023/09/09 09:33:09;;;;;;;5.90;3.78;;;;;;;;;;10300725;28;20533;-84
2023/09/09 09:38:12;;;;;;;4.95;3.70;;;;;;;;;;10295729;28;20519;-84
2023/09/09 09:43:19;;;;;;;6.43;4.15;;;;;;;;;;10305552;28;20438;-84
2023/09/09 09:48:28;;;;;;;4.50;3.90;;;;;;;;;;10308559;28;20450;-84
2023/09/09 09:53:32;;;;;;;4.63;3.70;;;;;;;;;;10309484;28;20515;-84
2023/09/09 09:58:38;;;;;;;5.25;3.50;;;;;;;;;;10300274;28;20438;-85
2023/09/09 10:03:46;;;;;;;6.38;3.50;;;;;;;;;;10303604;28;20555;-84
2023/09/09 10:08:57;;;;;;;7.17;3.70;;;;;;;;;;10295971;28;20448;-84
2023/09/09 10:14:11;;;;;;;5.90;4.10;;;;;;;;;;10294002;28;20466;-84
2023/09/09 10:19:14;;;;;;;5.15;3.55;;;;;;;;;;10303780;28;20446;-84
2023/09/09 10:24:17;;;;;;;6.72;3.83;;;;;;;;;;10299634;28;20426;-84
2023/09/09 10:29:22;;;;;;;5.47;4.10;;;;;;;;;;10305369;28;20407;-83
2023/09/09 10:34:25;;;;;;;5.80;3.55;;;;;;;;;;10302454;28;20803;-84
2023/09/09 10:39:28;;;;;;;4.82;3.55;;;;;;;;;;10299318;28;20482;-84
2023/09/09 10:44:32;;;;;;;5.43;3.72;;;;;;;;;;10298802;28;20618;-85
2023/09/09 10:49:34;;;;;;;4.00;3.33;;;;;;;;;;10298715;28;20418;-84
2023/09/09 10:54:37;;;;;;;6.82;3.53;;;;;;;;;;10301183;28;20524;-83
2023/09/09 10:59:40;;;;;;;4.53;3.53;;;;;;;;;;10295117;28;20465;-84
2023/09/09 11:04:43;;;;;;;4.97;3.47;;;;;;;;;;10293850;28;20478;-83
2023/09/09 11:09:52;;;;;;;4.17;3.47;;;;;;;;;;10302323;28;20477;-84
2023/09/09 11:15:06;;;;;;;5.63;3.78;;;;;;;;;;10284020;28;20515;-84
2023/09/09 11:20:11;;;;;;;4.30;3.90;;;;;;;;;;10290316;28;20456;-84
2023/09/09 11:25:15;;;;;;;4.45;3.60;;;;;;;;;;10290230;28;20927;-82
2023/09/09 11:30:19;;;;;;;5.07;3.88;;;;;;;;;;10295116;28;20511;-82
2023/09/09 11:35:23;;;;;;;4.85;3.50;;;;;;;;;;10289669;28;20549;-82
2023/09/09 11:40:25;;;;;;;4.60;3.45;;;;;;;;;;10296646;28;20510;-83
2023/09/09 11:45:32;;;;;;;5.95;3.83;;;;;;;;;;10295381;28;20450;-83
2023/09/09 11:50:42;;;;;;;4.90;3.63;;;;;;;;;;10296718;28;20448;-83
2023/09/09 11:55:44;;;;;;;3.63;3.33;;;;;;;;;;10294859;28;20440;-83
2023/09/09 12:00:48;;;;;;;4.43;3.90;;;;;;;;;;10295197;28;21000;-83
2023/09/09 12:05:53;;;;;;;4.35;3.90;;;;;;;;;;10297875;28;20976;-84
2023/09/09 12:10:57;;;;;;;4.63;3.60;;;;;;;;;;10293704;28;20470;-83
2023/09/09 12:16:02;;;;;;;4.50;3.60;;;;;;;;;;10301065;28;20527;-83
2023/09/09 12:21:07;;;;;;;3.85;3.50;;;;;;;;;;10294707;28;20450;-83
2023/09/09 12:26:11;;;;;;;4.07;3.40;;;;;;;;;;10299729;28;20462;-83
2023/09/09 12:31:14;;;;;;;4.53;3.13;;;;;;;;;;10297018;28;20489;-85
2023/09/09 12:36:18;;;;;;;3.35;3.05;;;;;;;;;;10286417;28;20941;-83
2023/09/09 12:41:22;;;;;;;4.65;3.55;;;;;;;;;;10293597;28;20989;-84
2023/09/09 12:46:27;;;;;;;5.90;3.20;;;;;;;;;;10291130;28;20452;-85
2023/09/09 12:51:32;;;;;;;3.80;3.20;;;;;;;;;;10288393;28;20512;-84
2023/09/09 12:56:34;;;;;;;4.90;2.93;;;;;;;;;;10297848;28;20540;-84
2023/09/09 13:01:38;;;;;;;4.20;3.15;;;;;;;;;;10285955;28;20559;-84
2023/09/09 13:06:41;;;;;;;4.43;3.30;;;;;;;;;;10293648;28;20514;-85
2023/09/09 13:11:43;;;;;;;4.00;3.30;;;;;;;;;;10298370;28;20854;-84
2023/09/09 13:16:47;;;;;;;6.53;3.90;;;;;;;;;;10311511;28;20492;-84
2023/09/09 13:21:49;;;;;;;5.07;3.28;;;;;;;;;;10306047;28;20460;-85
2023/09/09 13:26:51;;;;;;;3.70;3.30;;;;;;;;;;10305020;28;20503;-85
2023/09/09 13:31:55;;;;;;;5.27;3.57;;;;;;;;;;10304103;28;20486;-86
2023/09/09 13:36:57;;;;;;;3.50;3.20;;;;;;;;;;10305676;28;20896;-86
2023/09/09 13:41:59;;;;;;;3.97;3.13;;;;;;;;;;10303172;28;20456;-85
2023/09/09 13:47:03;;;;;;;3.70;3.38;;;;;;;;;;10304149;28;20533;-85
2023/09/09 13:52:06;;;;;;;4.27;3.40;;;;;;;;;;10308658;28;20527;-85
2023/09/09 13:57:09;;;;;;;3.67;2.97;;;;;;;;;;10303497;28;20448;-86
2023/09/09 14:02:12;;;;;;;3.92;3.50;;;;;;;;;;10300468;28;20913;-86
2023/09/09 14:07:15;;;;;;;4.00;3.23;;;;;;;;;;10299226;28;20509;-86
2023/09/09 14:12:17;;;;;;;3.47;3.17;;;;;;;;;;10301769;28;20460;-86
2023/09/09 14:17:21;;;;;;;4.25;3.33;;;;;;;;;;10299600;28;20976;-84
2023/09/09 14:22:24;;;;;;;4.10;3.10;;;;;;;;;;10303149;28;20509;-84
2023/09/09 14:27:26;;;;;;;3.22;2.92;;;;;;;;;;10301937;28;20461;-85
2023/09/09 14:32:30;;;;;;;4.13;3.30;;;;;;;;;;10306190;28;20462;-86
2023/09/09 14:37:32;;;;;;;3.77;3.47;;;;;;;;;;10302934;28;20462;-85
2023/09/09 14:42:34;;;;;;;3.15;2.80;;;;;;;;;;10308172;28;20482;-85
2023/09/09 14:47:38;;;;;;;3.90;3.10;;;;;;;;;;10313192;28;20463;-85
2023/09/09 14:52:41;;;;;;;3.87;2.80;;;;;;;;;;10294648;28;20913;-85
2023/09/09 14:57:43;;;;;;;3.55;2.97;;;;;;;;;;10299055;28;20513;-86
2023/09/09 15:02:47;;;;;;;4.15;3.10;;;;;;;;;;10302059;28;20517;-86
2023/09/09 15:07:49;;;;;;;4.25;2.95;;;;;;;;;;10295905;28;20515;-85
2023/09/09 15:12:51;;;;;;;3.45;3.15;;;;;;;;;;10301732;28;20542;-84
2023/09/09 15:17:55;;;;;;;3.35;2.92;;;;;;;;;;10303022;28;20490;-85
2023/09/09 15:22:57;;;;;;;3.45;2.95;;;;;;;;;;10298202;28;20454;-85
2023/09/09 15:27:59;;;;;;;3.65;2.90;;;;;;;;;;10296458;28;20484;-86
2023/09/09 15:33:03;;;;;;;3.70;3.20;;;;;;;;;;10294355;28;20944;-86
2023/09/09 15:38:06;;;;;;;3.35;2.85;;;;;;;;;;10289553;28;20493;-85
2023/09/09 15:43:08;;;;;;;4.63;3.40;;;;;;;;;;10296775;28;20798;-85
2023/09/09 15:48:12;;;;;;;3.92;3.13;;;;;;;;;;10296569;28;21025;-84
2023/09/09 15:53:14;;;;;;;6.85;3.05;;;;;;;;;;10301924;28;20462;-83
2023/09/09 15:58:18;;;;;;;9.23;3.17;;;;;;;;;;10294879;28;21227;-82
2023/09/09 16:03:22;;;;;;;4.03;3.00;;;;;;;;;;10298628;28;20415;-84
2023/09/09 16:08:24;;;;;;;3.15;2.65;;;;;;;;;;10292013;28;20443;-85
2023/09/09 16:13:27;;;;;;;4.20;3.80;;;;;;;;;;10295749;28;20526;-86
2023/09/09 16:18:31;;;;;;;5.80;3.30;;;;;;;;;;10297861;28;20445;-85
2023/09/09 16:23:34;;;;;;;4.03;3.33;;;;;;;;;;10300499;28;20415;-86
2023/09/09 16:28:36;;;;;;;6.43;3.28;;;;;;;;;;10287102;28;20498;-85
2023/09/09 16:33:40;;;;;;;5.15;3.03;;;;;;;;;;10292160;28;20515;-86
2023/09/09 16:38:42;;;;;;;3.30;3.00;;;;;;;;;;10291703;28;20479;-86
2023/09/09 16:43:45;;;;;;;3.28;2.97;;;;;;;;;;10291731;28;20454;-86
2023/09/09 16:48:49;;;;;;;4.00;2.90;;;;;;;;;;10294829;28;20438;-86
2023/09/09 16:53:51;;;;;;;4.73;3.10;;;;;;;;;;10308385;28;20909;-86
2023/09/09 16:58:53;;;;;;;6.17;3.00;;;;;;;;;;10302095;28;20436;-86
2023/09/09 17:03:57;;;;;;;3.43;3.00;;;;;;;;;;10298427;28;20464;-85
2023/09/09 17:08:59;;;;;;;4.35;3.15;;;;;;;;;;10294757;28;20994;-86
2023/09/09 17:14:02;;;;;;;5.33;3.00;;;;;;;;;;10296744;28;20491;-86
2023/09/09 17:19:05;;;;;;;3.97;3.50;;;;;;;;;;10299376;28;20470;-86
2023/09/09 17:24:08;;;;;;;6.47;3.53;;;;;;;;;;10304141;28;20449;-86
2023/09/09 17:29:10;;;;;;;5.93;4.22;;;;;;;;;;10302047;28;20722;-84
2023/09/09 17:34:14;;;;;;;4.97;3.45;;;;;;;;;;10315854;28;20457;-86
2023/09/09 17:39:18;;;;;;;6.07;3.67;;;;;;;;;;10302148;28;21035;-84
2023/09/09 17:44:20;;;;;;;4.15;3.60;;;;;;;;;;10295090;28;20436;-84
2023/09/09 17:49:25;;;;;;;4.82;3.90;;;;;;;;;;10304117;28;20504;-83
2023/09/09 17:54:27;;;;;;;7.47;4.17;;;;;;;;;;10288753;28;20879;-84
2023/09/09 17:59:30;;;;;;;4.60;3.70;;;;;;;;;;10296261;28;20499;-84
2023/09/09 18:04:33;;;;;;;7.38;4.10;;;;;;;;;;10299768;28;20501;-84
2023/09/09 18:09:36;;;;;;;5.72;3.67;;;;;;;;;;10300521;28;20517;-84
2023/09/09 18:14:38;;;;;;;4.95;3.78;;;;;;;;;;10298022;28;20493;-84
2023/09/09 18:19:42;;;;;;;9.85;4.68;;;;;;;;;;10299110;28;20520;-87
2023/09/09 18:24:44;;;;;;;13.98;4.55;;;;;;;;;;10301667;28;20987;-86
2023/09/09 18:29:46;;;;;;;9.95;4.47;;;;;;;;;;10292194;28;20412;-84
2023/09/09 18:34:50;;;;;;;6.80;4.50;;;;;;;;;;10300692;28;20458;-84
2023/09/09 18:39:52;;;;;;;8.67;4.77;;;;;;;;;;10297509;28;20438;-84
2023/09/09 18:44:55;;;;;;;11.73;5.10;;;;;;;;;;10297980;28;20499;-85
2023/09/09 18:49:59;;;;;;;6.80;4.70;;;;;;;;;;10294673;28;20901;-84
2023/09/09 18:55:01;;;;;;;6.97;4.70;;;;;;;;;;10296372;28;20458;-86
2023/09/09 19:00:05;;;;;;;5.07;4.60;;;;;;;;;;10291439;28;20464;-87
2023/09/09 19:05:09;;;;;;;7.47;5.65;;;;;;;;;;10296577;28;20607;-86
2023/09/09 19:10:11;;;;;;;10.70;6.88;;;;;;;;;;10296024;28;20462;-87
2023/09/09 19:15:18;;;;;;;12.50;7.07;;;;;;;;;;10302229;28;20843;-86
2023/09/09 19:20:22;;;;;;;9.57;6.27;;;;;;;;;;10293514;28;21268;-86
2023/09/09 19:25:24;;;;;;;13.25;7.72;;;;;;;;;;10294040;28;20457;-86
2023/09/09 19:30:26;;;;;;;10.40;7.28;;;;;;;;;;10299581;28;20452;-86
2023/09/09 19:35:30;;;;;;;12.77;7.50;;;;;;;;;;10304365;28;20934;-86
2023/09/09 19:40:32;;;;;;;10.60;7.72;;;;;;;;;;10298581;28;20546;-88
2023/09/09 19:45:35;;;;;;;8.52;7.53;;;;;;;;;;10289429;28;20508;-86
2023/09/09 19:50:40;;;;;;;9.45;7.15;;;;;;;;;;10292472;28;20464;-86
2023/09/09 19:55:43;;;;;;;8.93;6.97;;;;;;;;;;10289595;28;20624;-86
2023/09/09 20:00:46;;;;;;;8.90;6.78;;;;;;;;;;10292760;28;21134;-85
2023/09/09 20:05:50;;;;;;;11.30;7.72;;;;;;;;;;10294679;28;20570;-85
2023/09/09 20:10:54;;;;;;;9.65;7.63;;;;;;;;;;10286546;28;20448;-86
2023/09/09 20:15:57;;;;;;;10.50;7.60;;;;;;;;;;10293100;28;20941;-86
2023/09/09 20:21:03;;;;;;;10.05;7.88;;;;;;;;;;10294372;28;20518;-85
2023/09/09 20:26:05;;;;;;;9.52;7.45;;;;;;;;;;10297228;28;20436;-86
2023/09/09 20:31:07;;;;;;;9.07;7.60;;;;;;;;;;10292479;28;20446;-85
2023/09/09 20:36:11;;;;;;;9.13;7.03;;;;;;;;;;10293583;28;20462;-86
2023/09/09 20:41:13;;;;;;;8.98;6.55;;;;;;;;;;10291676;28;20525;-86
2023/09/09 20:46:15;;;;;;;9.77;6.40;;;;;;;;;;10293099;28;21315;-86
2023/09/09 20:51:19;;;;;;;9.13;6.60;;;;;;;;;;10288478;28;20460;-85
2023/09/09 20:56:22;;;;;;;8.33;5.93;;;;;;;;;;10287469;28;20532;-85
2023/09/09 21:01:24;;;;;;;8.73;6.20;;;;;;;;;;10293883;28;20778;-86
2023/09/09 21:06:28;;;;;;;12.05;6.57;;;;;;;;;;10286662;28;20511;-85
2023/09/09 21:11:30;;;;;;;7.03;5.70;;;;;;;;;;10294902;28;20462;-86
2023/09/09 21:16:33;;;;;;;7.88;6.03;;;;;;;;;;10294951;28;20454;-85
2023/09/09 21:21:36;;;;;;;8.75;6.28;;;;;;;;;;10284212;28;20525;-86
2023/09/09 21:26:39;;;;;;;7.57;5.90;;;;;;;;;;10280311;28;20508;-86
2023/09/09 21:31:41;;;;;;;9.40;6.45;;;;;;;;;;10285129;28;20536;-86
2023/09/09 21:36:45;;;;;;;8.15;6.32;;;;;;;;;;10292671;28;20997;-85
2023/09/09 21:41:47;;;;;;;6.82;6.15;;;;;;;;;;10290444;28;20453;-86
2023/09/09 21:46:50;;;;;;;7.00;5.73;;;;;;;;;;10294305;28;20535;-86
2023/09/09 21:51:54;;;;;;;7.30;6.03;;;;;;;;;;10310579;28;21019;-86
2023/09/09 21:56:56;;;;;;;7.83;5.97;;;;;;;;;;10305790;28;20499;-86
2023/09/09 22:01:58;;;;;;;8.68;6.13;;;;;;;;;;10304159;28;20426;-86
2023/09/09 22:07:03;;;;;;;6.82;5.90;;;;;;;;;;10302966;28;20428;-85
2023/09/09 22:12:05;;;;;;;7.40;6.15;;;;;;;;;;10305322;28;20458;-85
2023/09/09 22:17:08;;;;;;;7.13;5.95;;;;;;;;;;10307611;28;20460;-85
2023/09/09 22:22:12;;;;;;;7.53;6.07;;;;;;;;;;10309097;28;20457;-85
2023/09/09 22:27:14;;;;;;;10.45;6.60;;;;;;;;;;10302125;28;20470;-85
2023/09/09 22:32:16;;;;;;;10.17;6.90;;;;;;;;;;10315868;28;20758;-85
2023/09/09 22:37:20;;;;;;;8.63;6.65;;;;;;;;;;10302195;28;20513;-85
2023/09/09 22:42:23;;;;;;;7.90;7.10;;;;;;;;;;10313623;28;20526;-85
2023/09/09 22:47:26;;;;;;;9.18;6.30;;;;;;;;;;10303597;28;20900;-86
2023/09/09 22:52:30;;;;;;;8.30;6.47;;;;;;;;;;10305588;28;20513;-86
2023/09/09 22:57:33;;;;;;;8.73;6.28;;;;;;;;;;10294505;28;20465;-86
2023/09/09 23:02:35;;;;;;;9.68;6.80;;;;;;;;;;10320188;23;20464;-86
2023/09/09 23:07:39;;;;;;;7.50;6.72;;;;;;;;;;10295008;28;20516;-85
2023/09/09 23:12:41;;;;;;;7.57;6.60;;;;;;;;;;10312638;28;20456;-85
2023/09/09 23:17:44;;;;;;;8.90;6.45;;;;;;;;;;10329523;28;20477;-85
2023/09/09 23:22:48;;;;;;;7.83;5.73;;;;;;;;;;10335226;28;20444;-85
2023/09/09 23:27:51;;;;;;;7.93;5.93;;;;;;;;;;10337904;28;20447;-85
2023/09/09 23:32:54;;;;;;;6.35;5.55;;;;;;;;;;10330447;28;20437;-84
2023/09/09 23:37:59;;;;;;;6.93;5.90;;;;;;;;;;10325776;28;20589;-84
2023/09/09 23:43:01;;;;;;;8.52;5.93;;;;;;;;;;10332299;28;20444;-85
2023/09/09 23:48:05;;;;;;;8.27;6.50;;;;;;;;;;10328235;28;20793;-84
2023/09/09 23:53:09;;;;;;;7.37;6.43;;;;;;;;;;10328991;28;20409;-85
2023/09/09 23:58:11;;;;;;;6.80;6.10;;;;;;;;;;10336914;28;20427;-85
